Time;durP1;ratioP1;P1;durP2;ratioP2;P2;SDS_P1;SDS_P2;PMS_P1;PMS_P2;Temp;Humidity;BMP_temperature;BMP_pressure;BME280_temperature;BME280_humidity;BME280_pressure;Samples;Min_cycle;Max_cycle;Signal;HPM_P1;HPM_P2
2023/09/10 00:01:12;;;;;;;22.85;20.75;;;15.90;99.90;;;;;;4908477;29;20036;-66
2023/09/10 00:03:40;;;;;;;24.98;22.60;;;15.90;99.90;;;;;;4904453;29;20079;-66
2023/09/10 00:06:08;;;;;;;25.80;23.40;;;15.90;99.90;;;;;;4908308;29;20118;-69
2023/09/10 00:08:35;;;;;;;25.85;23.38;;;15.90;99.90;;;;;;4907663;29;20072;-66
2023/09/10 00:11:05;;;;;;;23.45;20.95;;;15.80;99.90;;;;;;4906357;29;20414;-69
2023/09/10 00:13:32;;;;;;;24.10;21.67;;;15.80;99.90;;;;;;4906878;29;20048;-68
2023/09/10 00:15:59;;;;;;;22.42;20.02;;;15.80;99.90;;;;;;4905853;29;20070;-70
2023/09/10 00:18:26;;;;;;;21.95;19.95;;;15.80;99.90;;;;;;4907407;29;20468;-68
2023/09/10 00:20:54;;;;;;;26.42;23.83;;;15.70;99.90;;;;;;4906145;29;20068;-68
2023/09/10 00:23:20;;;;;;;22.83;20.48;;;15.70;99.90;;;;;;4908501;29;20051;-69
2023/09/10 00:25:47;;;;;;;24.60;20.92;;;15.70;99.90;;;;;;4909423;29;20048;-67
2023/09/10 00:28:15;;;;;;;23.65;21.27;;;15.70;99.90;;;;;;4908168;29;20490;-66
2023/09/10 00:30:42;;;;;;;24.27;21.55;;;15.70;99.90;;;;;;4908382;29;20091;-69
2023/09/10 00:33:09;;;;;;;25.63;23.00;;;15.70;99.90;;;;;;4908100;29;20044;-66
2023/09/10 00:35:36;;;;;;;29.98;20.70;;;15.70;99.90;;;;;;4906268;29;20522;-66
2023/09/10 00:38:03;;;;;;;22.63;20.23;;;15.60;99.90;;;;;;4908876;29;20623;-69
2023/09/10 00:40:30;;;;;;;25.33;22.95;;;15.60;99.90;;;;;;4904464;29;20049;-71
2023/09/10 00:42:57;;;;;;;25.27;22.67;;;15.60;99.90;;;;;;4905941;29;20135;-69
2023/09/10 00:45:24;;;;;;;24.17;21.95;;;15.60;99.90;;;;;;4918224;29;20052;-66
2023/09/10 00:47:52;;;;;;;28.08;25.33;;;15.70;99.90;;;;;;4911174;29;20127;-65
2023/09/10 00:50:19;;;;;;;24.73;22.38;;;15.70;99.90;;;;;;4907745;29;20154;-68
2023/09/10 00:52:50;;;;;;;27.10;24.08;;;15.80;99.90;;;;;;4909268;29;20044;-68
2023/09/10 00:55:19;;;;;;;27.27;24.50;;;15.80;99.90;;;;;;4908264;29;20082;-69
2023/09/10 00:57:46;;;;;;;24.95;22.05;;;15.80;99.90;;;;;;4909214;29;20149;-70
2023/09/10 01:00:15;;;;;;;29.25;25.95;;;15.80;99.90;;;;;;4908057;29;20048;-66
2023/09/10 01:02:43;;;;;;;24.42;21.92;;;15.90;99.90;;;;;;4906969;29;20076;-68
2023/09/10 01:05:11;;;;;;;25.10;22.60;;;15.90;99.90;;;;;;4909015;29;20062;-65
2023/09/10 01:07:39;;;;;;;28.00;25.20;;;15.90;99.90;;;;;;4907296;29;20510;-71
2023/09/10 01:10:07;;;;;;;24.63;22.13;;;15.90;99.90;;;;;;4910274;29;20764;-66
2023/09/10 01:12:53;;;;;;;23.88;21.60;;;15.80;99.90;;;;;;4909667;29;20100;-65
2023/09/10 01:15:25;;;;;;;24.40;22.10;;;15.80;99.90;;;;;;4908150;29;20051;-67
2023/09/10 01:18:10;;;;;;;24.70;22.42;;;15.80;99.90;;;;;;4908939;29;20059;-67
2023/09/10 01:21:14;;;;;;;26.50;24.02;;;15.80;99.90;;;;;;4905722;29;20136;-69
2023/09/10 01:23:47;;;;;;;25.65;22.92;;;15.80;99.90;;;;;;4890210;29;20502;-66
2023/09/10 01:26:14;;;;;;;25.17;22.85;;;15.80;99.90;;;;;;4908188;29;20490;-65
2023/09/10 01:28:41;;;;;;;26.23;23.58;;;15.90;99.90;;;;;;4913592;29;20537;-75
2023/09/10 01:31:08;;;;;;;23.35;21.15;;;15.90;99.90;;;;;;4911095;29;20083;-70
2023/09/10 01:33:40;;;;;;;24.50;22.17;;;15.90;99.90;;;;;;4911719;29;20088;-66
2023/09/10 01:36:38;;;;;;;23.63;21.40;;;15.90;99.90;;;;;;4910370;29;20056;-74
2023/09/10 01:39:15;;;;;;;24.55;22.13;;;15.90;99.90;;;;;;4911252;29;20123;-67
2023/09/10 01:41:45;;;;;;;22.42;20.15;;;15.90;99.90;;;;;;4907181;29;20057;-66
2023/09/10 01:44:13;;;;;;;20.25;18.20;;;15.90;99.90;;;;;;4894960;29;20454;-67
2023/09/10 01:46:41;;;;;;;22.10;19.55;;;15.90;99.90;;;;;;4910925;29;20059;-65
2023/09/10 01:49:08;;;;;;;24.35;21.95;;;15.90;99.90;;;;;;4912168;29;20130;-69
2023/09/10 01:51:35;;;;;;;22.35;20.25;;;15.90;99.90;;;;;;4910672;29;20047;-66
2023/09/10 01:54:02;;;;;;;22.75;20.35;;;16.00;99.90;;;;;;4909675;29;20506;-66
2023/09/10 01:56:29;;;;;;;21.35;18.90;;;16.00;99.90;;;;;;4910417;29;20059;-68
2023/09/10 01:58:56;;;;;;;21.13;19.17;;;16.00;99.90;;;;;;4893229;29;20064;-69
2023/09/10 02:01:23;;;;;;;21.58;19.40;;;15.90;99.90;;;;;;4911714;29;20139;-68
2023/09/10 02:03:50;;;;;;;22.10;19.80;;;15.90;99.90;;;;;;4908277;29;20044;-68
2023/09/10 02:06:17;;;;;;;21.13;19.17;;;15.90;99.90;;;;;;4904909;29;20072;-66
2023/09/10 02:08:44;;;;;;;20.58;18.25;;;16.00;99.90;;;;;;4895556;29;20087;-67
2023/09/10 02:11:12;;;;;;;19.52;17.65;;;15.90;99.90;;;;;;4905681;29;20056;-66
2023/09/10 02:13:41;;;;;;;22.00;19.80;;;16.00;99.90;;;;;;4909971;29;20052;-67
2023/09/10 02:16:08;;;;;;;22.40;20.20;;;16.00;99.90;;;;;;4909939;29;20409;-66
2023/09/10 02:18:35;;;;;;;18.90;17.08;;;16.00;99.90;;;;;;4913188;29;20061;-68
2023/09/10 02:21:10;;;;;;;22.70;20.65;;;15.90;99.90;;;;;;4907692;29;20047;-72
2023/09/10 02:23:37;;;;;;;22.80;20.50;;;15.90;99.90;;;;;;4909498;29;20044;-66
2023/09/10 02:26:04;;;;;;;22.00;19.80;;;16.00;99.90;;;;;;4910583;29;20120;-70
2023/09/10 02:28:32;;;;;;;20.40;18.30;;;16.00;99.90;;;;;;4894507;29;20077;-66
2023/09/10 02:31:07;;;;;;;22.90;20.48;;;16.00;99.90;;;;;;4907858;29;20055;-67
2023/09/10 02:33:35;;;;;;;21.92;19.83;;;16.00;99.90;;;;;;4907238;29;20041;-66
2023/09/10 02:36:03;;;;;;;23.38;17.65;;;16.00;99.90;;;;;;4896874;29;20044;-67
2023/09/10 02:38:31;;;;;;;22.95;20.75;;;16.00;99.90;;;;;;4910799;29;20044;-69
2023/09/10 02:40:59;;;;;;;21.05;19.00;;;15.90;99.90;;;;;;4907207;29;20418;-66
2023/09/10 02:43:26;;;;;;;20.73;18.60;;;15.90;99.90;;;;;;4902475;29;20048;-71
2023/09/10 02:45:53;;;;;;;19.30;17.40;;;16.00;99.90;;;;;;4907286;29;20055;-66
2023/09/10 02:48:21;;;;;;;20.38;18.42;;;16.00;99.90;;;;;;4892602;29;20147;-66
2023/09/10 02:50:48;;;;;;;22.00;19.65;;;16.00;99.90;;;;;;4908849;29;20387;-68
2023/09/10 02:53:15;;;;;;;23.23;20.70;;;15.90;99.90;;;;;;4909534;29;20458;-66
2023/09/10 02:55:42;;;;;;;23.70;21.50;;;15.90;99.90;;;;;;4908852;29;20056;-67
2023/09/10 02:58:09;;;;;;;22.23;20.02;;;16.00;99.90;;;;;;4908294;29;20628;-69
2023/09/10 03:00:36;;;;;;;20.67;18.70;;;16.00;99.90;;;;;;4918880;29;20052;-67
2023/09/10 03:03:03;;;;;;;22.67;20.27;;;16.00;99.90;;;;;;4907823;29;20104;-68
2023/09/10 03:05:35;;;;;;;21.98;19.80;;;16.00;99.90;;;;;;4904603;29;20461;-69
2023/09/10 03:08:02;;;;;;;22.88;20.80;;;16.00;99.90;;;;;;4907691;29;20853;-66
2023/09/10 03:10:29;;;;;;;18.40;16.52;;;16.00;99.90;;;;;;4891002;29;20060;-69
2023/09/10 03:12:56;;;;;;;22.80;19.83;;;16.00;99.90;;;;;;4906700;29;20497;-69
2023/09/10 03:15:23;;;;;;;22.75;18.48;;;16.00;99.90;;;;;;4877137;29;20052;-66
2023/09/10 03:17:50;;;;;;;21.10;19.13;;;15.90;99.90;;;;;;4893997;29;20107;-68
2023/09/10 03:20:17;;;;;;;24.27;18.80;;;15.90;99.90;;;;;;4890308;29;20074;-67
2023/09/10 03:22:44;;;;;;;23.02;20.73;;;15.90;99.90;;;;;;4909555;29;20479;-66
2023/09/10 03:25:11;;;;;;;23.05;20.65;;;15.90;99.90;;;;;;4909544;29;20485;-71
2023/09/10 03:27:39;;;;;;;22.40;20.10;;;15.90;99.90;;;;;;4906474;29;20278;-66
2023/09/10 03:30:07;;;;;;;20.83;18.77;;;15.80;99.90;;;;;;4890998;29;20947;-67
2023/09/10 03:32:34;;;;;;;20.63;18.52;;;15.90;99.90;;;;;;4908378;29;20059;-67
2023/09/10 03:35:03;;;;;;;18.92;17.02;;;15.80;99.90;;;;;;4889001;29;20052;-67
2023/09/10 03:37:30;;;;;;;21.40;19.40;;;15.80;99.90;;;;;;4908727;29;20055;-66
2023/09/10 03:39:57;;;;;;;21.90;18.35;;;15.70;99.90;;;;;;4910815;29;20079;-66
2023/09/10 03:42:24;;;;;;;19.48;17.30;;;15.70;99.90;;;;;;4889134;29;20099;-68
2023/09/10 03:44:51;;;;;;;22.35;19.88;;;15.70;99.90;;;;;;4889494;29;20079;-66
2023/09/10 03:47:18;;;;;;;19.83;17.95;;;15.70;99.90;;;;;;4891050;29;20508;-68
2023/09/10 03:49:45;;;;;;;21.52;19.42;;;15.60;99.90;;;;;;4890097;29;20485;-66
2023/09/10 03:52:18;;;;;;;21.92;19.83;;;15.60;99.90;;;;;;4909379;29;20727;-66
2023/09/10 03:54:46;;;;;;;21.00;18.83;;;15.60;99.90;;;;;;4886190;29;20059;-67
2023/09/10 03:57:13;;;;;;;21.20;19.13;;;15.50;99.90;;;;;;4906382;29;20707;-66
2023/09/10 03:59:41;;;;;;;20.45;18.40;;;15.60;99.90;;;;;;4889705;29;20108;-66
2023/09/10 04:02:08;;;;;;;25.48;22.95;;;15.50;99.90;;;;;;4904187;29;20088;-70
2023/09/10 04:04:35;;;;;;;31.60;21.35;;;15.60;99.90;;;;;;4906115;29;20084;-69
2023/09/10 04:07:03;;;;;;;21.08;19.10;;;15.60;99.90;;;;;;4907852;29;20052;-68
2023/09/10 04:09:30;;;;;;;24.27;21.67;;;15.60;99.90;;;;;;4905904;29;20068;-67
2023/09/10 04:11:57;;;;;;;24.27;21.98;;;15.60;99.90;;;;;;4908770;29;20066;-66
2023/09/10 04:14:26;;;;;;;27.95;22.90;;;15.70;99.90;;;;;;4914700;29;20043;-67
2023/09/10 04:16:53;;;;;;;24.67;22.30;;;15.60;99.90;;;;;;4909944;29;20040;-69
2023/09/10 04:19:22;;;;;;;24.77;22.33;;;15.60;99.90;;;;;;4907588;29;20451;-70
2023/09/10 04:21:48;;;;;;;22.10;19.75;;;15.60;99.90;;;;;;4907763;29;20060;-67
2023/09/10 04:24:15;;;;;;;26.27;23.67;;;15.60;99.90;;;;;;4897558;29;20044;-68
2023/09/10 04:26:42;;;;;;;24.90;22.48;;;15.60;99.90;;;;;;4908116;29;20051;-66
2023/09/10 04:29:09;;;;;;;25.58;22.10;;;15.60;99.90;;;;;;4891897;29;20143;-70
2023/09/10 04:31:40;;;;;;;24.08;21.48;;;15.70;99.90;;;;;;4904350;29;20063;-73
2023/09/10 04:34:07;;;;;;;30.35;27.05;;;15.70;99.90;;;;;;4905152;29;20048;-66
2023/09/10 04:36:34;;;;;;;32.17;28.80;;;15.80;99.90;;;;;;4901849;29;20063;-68
2023/09/10 04:39:08;;;;;;;30.15;26.98;;;15.80;99.90;;;;;;4908834;29;20043;-67
2023/09/10 04:41:37;;;;;;;30.38;27.08;;;15.90;99.90;;;;;;4916174;29;20059;-67
2023/09/10 04:44:04;;;;;;;27.85;25.00;;;15.90;99.90;;;;;;4899578;29;20048;-66
2023/09/10 04:46:31;;;;;;;36.72;26.73;;;16.00;99.90;;;;;;4907986;29;20058;-68
2023/09/10 04:48:59;;;;;;;31.40;28.15;;;16.00;99.90;;;;;;4891072;29;20498;-66
2023/09/10 04:51:26;;;;;;;26.38;23.63;;;15.90;99.90;;;;;;4892675;29;20060;-68
2023/09/10 04:53:54;;;;;;;28.58;25.67;;;15.90;99.90;;;;;;4905813;29;20108;-66
2023/09/10 04:56:22;;;;;;;31.67;27.75;;;15.90;99.90;;;;;;4907326;29;20629;-66
2023/09/10 04:58:49;;;;;;;34.95;31.17;;;16.00;99.90;;;;;;4907255;29;20475;-68
2023/09/10 05:01:17;;;;;;;34.33;30.58;;;16.00;99.90;;;;;;4911411;29;20100;-66
2023/09/10 05:03:44;;;;;;;31.00;27.77;;;16.00;99.90;;;;;;4910394;29;20058;-68
2023/09/10 05:06:13;;;;;;;30.83;27.30;;;16.10;99.90;;;;;;4911026;29;20579;-66
2023/09/10 05:08:41;;;;;;;35.30;31.10;;;16.10;99.90;;;;;;4906103;29;20147;-66
2023/09/10 05:11:09;;;;;;;31.70;27.90;;;16.10;99.90;;;;;;4911893;29;20044;-68
2023/09/10 05:13:36;;;;;;;32.33;28.92;;;16.10;99.90;;;;;;4909585;29;20143;-68
2023/09/10 05:16:03;;;;;;;32.10;28.67;;;16.10;99.90;;;;;;4906984;29;20573;-68
2023/09/10 05:18:30;;;;;;;35.58;30.92;;;16.20;99.90;;;;;;4908246;29;20048;-66
2023/09/10 05:20:57;;;;;;;33.10;28.55;;;16.20;99.90;;;;;;4898301;29;20056;-65
2023/09/10 05:23:26;;;;;;;31.95;28.55;;;16.20;99.90;;;;;;4896360;29;20048;-66
2023/09/10 05:25:54;;;;;;;33.40;29.15;;;16.20;99.90;;;;;;4892514;29;20719;-66
2023/09/10 05:28:22;;;;;;;34.58;29.42;;;16.20;99.90;;;;;;4905343;29;20048;-74
2023/09/10 05:30:49;;;;;;;28.98;26.00;;;16.30;99.90;;;;;;4911254;29;20048;-66
2023/09/10 05:33:16;;;;;;;33.08;27.10;;;16.30;99.90;;;;;;4909334;29;20844;-71
2023/09/10 05:35:44;;;;;;;33.30;29.58;;;16.30;99.90;;;;;;4891649;29;20127;-71
2023/09/10 05:38:11;;;;;;;28.38;25.42;;;16.40;99.90;;;;;;4911119;29;20483;-66
2023/09/10 05:40:38;;;;;;;30.38;27.13;;;16.40;99.90;;;;;;4895006;29;20062;-69
2023/09/10 05:43:06;;;;;;;28.90;24.92;;;16.50;99.90;;;;;;4907794;29;20048;-68
2023/09/10 05:45:34;;;;;;;29.98;26.77;;;16.50;99.90;;;;;;4906268;29;20059;-66
2023/09/10 05:48:01;;;;;;;32.72;29.38;;;16.50;99.90;;;;;;4910828;29;20433;-71
2023/09/10 05:50:29;;;;;;;29.15;26.08;;;16.60;99.90;;;;;;4907251;29;20191;-71
2023/09/10 05:52:56;;;;;;;30.35;27.33;;;16.60;99.90;;;;;;4891278;29;20060;-67
2023/09/10 05:55:26;;;;;;;34.97;30.38;;;16.70;99.90;;;;;;4894257;29;20147;-65
2023/09/10 05:57:53;;;;;;;29.73;26.80;;;16.70;99.90;;;;;;4914402;29;20086;-69
2023/09/10 06:00:22;;;;;;;28.00;25.38;;;16.80;99.90;;;;;;4909789;29;20048;-68
2023/09/10 06:02:49;;;;;;;29.33;26.25;;;16.70;99.90;;;;;;4894517;29;20075;-66
2023/09/10 06:05:17;;;;;;;27.15;24.27;;;16.80;99.90;;;;;;4906402;29;20497;-66
2023/09/10 06:07:44;;;;;;;30.48;27.23;;;16.80;99.90;;;;;;4890889;29;20395;-67
2023/09/10 06:10:11;;;;;;;30.60;27.33;;;16.90;99.90;;;;;;4912269;29;20473;-69
2023/09/10 06:12:39;;;;;;;28.08;25.35;;;16.90;99.90;;;;;;4908194;29;20075;-67
2023/09/10 06:15:08;;;;;;;27.75;24.85;;;16.90;99.90;;;;;;4910645;29;20505;-66
2023/09/10 06:17:36;;;;;;;24.63;22.02;;;16.90;99.90;;;;;;4886136;29;20083;-66
2023/09/10 06:20:04;;;;;;;25.83;23.35;;;17.00;99.90;;;;;;4909173;29;20048;-67
2023/09/10 06:22:31;;;;;;;26.40;23.30;;;17.00;99.90;;;;;;4889330;29;20056;-70
2023/09/10 06:24:58;;;;;;;24.45;22.10;;;17.10;99.90;;;;;;4907690;29;20048;-69
2023/09/10 06:27:25;;;;;;;24.85;21.10;;;17.10;99.90;;;;;;4912266;29;20052;-66
2023/09/10 06:29:52;;;;;;;23.77;21.60;;;17.10;99.90;;;;;;4910283;29;20473;-67
2023/09/10 06:32:19;;;;;;;22.33;20.23;;;17.20;99.90;;;;;;4910401;29;20040;-66
2023/09/10 06:34:46;;;;;;;22.33;20.33;;;17.20;99.90;;;;;;4906882;29;20056;-73
2023/09/10 06:37:13;;;;;;;26.48;23.77;;;17.30;99.90;;;;;;4895494;29;20740;-66
2023/09/10 06:39:42;;;;;;;22.35;20.08;;;17.30;99.90;;;;;;4902427;29;20060;-68
2023/09/10 06:42:12;;;;;;;19.98;18.10;;;17.40;99.90;;;;;;4909973;29;20087;-67
2023/09/10 06:44:45;;;;;;;22.58;20.48;;;17.40;99.90;;;;;;4903697;29;20064;-66
2023/09/10 06:47:12;;;;;;;21.58;19.50;;;17.50;99.90;;;;;;4909366;29;20051;-72
2023/09/10 06:49:39;;;;;;;22.55;20.27;;;17.60;99.90;;;;;;4906942;29;20043;-70
2023/09/10 06:52:09;;;;;;;22.15;20.02;;;17.60;99.90;;;;;;4907559;29;20048;-66
2023/09/10 06:54:37;;;;;;;22.02;19.33;;;17.70;99.90;;;;;;4909856;29;20135;-72
2023/09/10 06:57:04;;;;;;;18.33;16.63;;;17.80;99.90;;;;;;4910354;29;20099;-70
2023/09/10 06:59:31;;;;;;;20.02;18.17;;;17.80;99.90;;;;;;4912270;29;20073;-70
2023/09/10 07:01:58;;;;;;;17.35;15.38;;;17.80;99.90;;;;;;4909734;29;20056;-66
2023/09/10 07:04:25;;;;;;;19.33;17.55;;;17.90;99.90;;;;;;4911769;29;20064;-68
2023/09/10 07:06:52;;;;;;;18.85;17.20;;;18.00;99.90;;;;;;4905802;29;20506;-66
2023/09/10 07:09:21;;;;;;;17.42;15.82;;;18.00;99.90;;;;;;4908539;29;20090;-73
2023/09/10 07:11:53;;;;;;;18.23;16.02;;;18.10;99.90;;;;;;4907691;29;20056;-71
2023/09/10 07:14:20;;;;;;;17.55;15.93;;;18.20;99.90;;;;;;4909038;29;20055;-66
2023/09/10 07:16:48;;;;;;;16.15;14.65;;;18.30;99.90;;;;;;4907328;29;20052;-67
2023/09/10 07:19:16;;;;;;;16.65;14.77;;;18.30;99.90;;;;;;4912128;29;20057;-66
2023/09/10 07:21:43;;;;;;;15.90;14.38;;;18.40;99.90;;;;;;4907901;29;20530;-72
2023/09/10 07:24:10;;;;;;;17.08;15.05;;;18.50;99.90;;;;;;4907501;29;20054;-66
2023/09/10 07:26:37;;;;;;;15.35;13.95;;;18.50;99.90;;;;;;4908551;29;20044;-69
2023/09/10 07:29:05;;;;;;;15.23;13.82;;;18.70;99.90;;;;;;4910119;29;20047;-70
2023/09/10 07:31:33;;;;;;;14.70;13.45;;;18.80;99.90;;;;;;4908721;29;20058;-69
2023/09/10 07:34:01;;;;;;;13.63;12.32;;;18.90;99.90;;;;;;4911672;29;20051;-69
2023/09/10 07:36:29;;;;;;;15.18;12.48;;;19.00;99.90;;;;;;4907092;29;20064;-72
2023/09/10 07:38:55;;;;;;;12.70;11.52;;;19.10;99.90;;;;;;4906077;29;20056;-66
2023/09/10 07:41:22;;;;;;;11.93;10.82;;;19.10;99.90;;;;;;4909252;29;20052;-68
2023/09/10 07:43:50;;;;;;;11.95;10.85;;;19.20;99.90;;;;;;4893851;29;20433;-69
2023/09/10 07:46:17;;;;;;;13.50;12.32;;;19.30;99.90;;;;;;4907083;29;20052;-68
2023/09/10 07:48:44;;;;;;;13.07;11.80;;;19.40;99.90;;;;;;4905789;29;20223;-69
2023/09/10 07:51:11;;;;;;;10.57;9.68;;;19.50;99.90;;;;;;4908968;29;20048;-71
2023/09/10 07:53:38;;;;;;;12.10;11.07;;;19.60;99.90;;;;;;4912480;29;20458;-65
2023/09/10 07:56:05;;;;;;;10.85;9.95;;;19.70;99.90;;;;;;4910946;29;20052;-67
2023/09/10 07:58:32;;;;;;;10.35;9.40;;;19.80;99.90;;;;;;4905693;29;20394;-67
2023/09/10 08:00:58;;;;;;;10.93;10.02;;;19.90;99.90;;;;;;4910580;29;20052;-67
2023/09/10 08:03:25;;;;;;;10.00;9.02;;;20.00;99.90;;;;;;4909305;29;20048;-70
2023/09/10 08:05:52;;;;;;;9.15;8.25;;;20.10;99.90;;;;;;4910510;29;20052;-67
2023/09/10 08:08:19;;;;;;;9.82;8.82;;;20.20;99.90;;;;;;4909055;29;20083;-65
2023/09/10 08:10:46;;;;;;;9.65;8.73;;;20.30;99.90;;;;;;4908570;29;20047;-66
2023/09/10 08:13:14;;;;;;;10.07;9.15;;;20.30;99.90;;;;;;4909506;29;20478;-66
2023/09/10 08:15:42;;;;;;;10.35;9.45;;;20.40;99.90;;;;;;4911783;29;20079;-67
2023/09/10 08:18:11;;;;;;;8.75;7.88;;;20.50;99.90;;;;;;4908836;29;20048;-66
2023/09/10 08:20:42;;;;;;;10.07;9.15;;;20.60;99.90;;;;;;4907568;29;20055;-66
2023/09/10 08:23:09;;;;;;;9.95;9.07;;;20.70;99.90;;;;;;4910186;29;20122;-66
2023/09/10 08:25:36;;;;;;;9.40;8.60;;;20.80;99.90;;;;;;4906688;29;20131;-66
2023/09/10 08:28:04;;;;;;;10.45;9.48;;;20.90;99.90;;;;;;4909237;29;20094;-68
2023/09/10 08:30:31;;;;;;;9.68;8.88;;;20.90;99.90;;;;;;4909099;29;20056;-69
2023/09/10 08:32:58;;;;;;;10.05;9.07;;;20.90;99.90;;;;;;4910236;29;20052;-68
2023/09/10 08:35:45;;;;;;;9.73;8.85;;;21.00;99.90;;;;;;4907373;29;20046;-70
2023/09/10 08:38:13;;;;;;;10.27;9.07;;;21.00;99.90;;;;;;4909152;29;20052;-65
2023/09/10 08:40:55;;;;;;;8.70;7.90;;;21.10;99.90;;;;;;4908413;29;20186;-69
2023/09/10 08:43:31;;;;;;;10.32;9.27;;;21.30;99.90;;;;;;4909206;29;20046;-66
2023/09/10 08:45:58;;;;;;;10.10;9.07;;;21.50;99.90;;;;;;4910294;29;20375;-68
2023/09/10 08:48:27;;;;;;;9.40;8.50;;;21.60;99.90;;;;;;4910555;29;20040;-66
2023/09/10 08:50:56;;;;;;;12.00;8.45;;;21.80;99.90;;;;;;4910161;29;20479;-67
2023/09/10 08:53:24;;;;;;;9.05;8.23;;;21.80;99.90;;;;;;4911681;29;20044;-74
2023/09/10 08:55:51;;;;;;;11.65;10.38;;;22.00;99.90;;;;;;4910489;29;20059;-67
2023/09/10 08:58:19;;;;;;;9.65;8.80;;;22.10;99.90;;;;;;4909813;29;20055;-67
2023/09/10 09:00:49;;;;;;;9.38;8.48;;;22.20;99.90;;;;;;4922755;29;20048;-75
2023/09/10 09:03:17;;;;;;;8.55;7.80;;;22.30;99.90;;;;;;4910674;29;20062;-66
2023/09/10 09:05:48;;;;;;;8.70;8.02;;;22.50;99.90;;;;;;4909552;29;20570;-67
2023/09/10 09:08:21;;;;;;;8.32;7.57;;;22.50;99.90;;;;;;4908784;29;20064;-66
2023/09/10 09:10:49;;;;;;;8.70;7.75;;;22.50;99.90;;;;;;4907301;29;20466;-70
2023/09/10 09:13:17;;;;;;;8.32;7.63;;;22.50;99.90;;;;;;4910288;29;20479;-66
2023/09/10 09:15:44;;;;;;;10.07;7.72;;;22.50;99.90;;;;;;4907712;29;20415;-68
2023/09/10 09:18:16;;;;;;;11.32;10.32;;;22.40;99.90;;;;;;4913590;29;20055;-74
2023/09/10 09:20:46;;;;;;;10.45;8.20;;;22.50;99.90;;;;;;4904737;29;20051;-75
2023/09/10 09:23:18;;;;;;;8.48;7.78;;;22.60;99.90;;;;;;4906636;29;20509;-67
2023/09/10 09:25:46;;;;;;;7.85;7.05;;;22.70;99.90;;;;;;4908751;29;20050;-73
2023/09/10 09:28:13;;;;;;;8.60;7.90;;;22.80;99.90;;;;;;4909541;29;20052;-66
2023/09/10 09:30:40;;;;;;;9.05;8.25;;;22.90;99.90;;;;;;4909594;29;20056;-69
2023/09/10 09:33:07;;;;;;;9.93;9.05;;;22.90;99.90;;;;;;4906061;29;20111;-68
2023/09/10 09:35:34;;;;;;;10.02;9.02;;;22.90;99.90;;;;;;4908063;29;20371;-68
2023/09/10 09:38:09;;;;;;;10.07;9.13;;;22.80;99.90;;;;;;4908365;29;20044;-66
2023/09/10 09:40:36;;;;;;;9.80;8.88;;;22.80;99.90;;;;;;4908065;29;20058;-69
2023/09/10 09:43:08;;;;;;;8.90;8.10;;;22.70;99.90;;;;;;4908012;29;20127;-66
2023/09/10 09:45:46;;;;;;;10.05;8.77;;;22.70;99.90;;;;;;4908427;29;20072;-67
2023/09/10 09:48:13;;;;;;;11.80;9.23;;;22.70;99.90;;;;;;4910406;29;20052;-71
2023/09/10 09:50:40;;;;;;;8.80;8.10;;;22.60;99.90;;;;;;4908651;29;20478;-69
2023/09/10 09:53:07;;;;;;;15.02;10.70;;;22.60;99.90;;;;;;4912803;29;20047;-66
2023/09/10 09:55:34;;;;;;;13.18;10.23;;;22.60;99.90;;;;;;4910456;29;20048;-70
2023/09/10 09:58:04;;;;;;;13.20;11.25;;;22.60;99.90;;;;;;4911622;29;20084;-66
2023/09/10 10:00:34;;;;;;;;;;;22.50;99.90;;;;;;4911549;29;20447;-72
2023/09/10 10:03:05;;;;;;;12.80;11.32;;;22.40;99.90;;;;;;4911519;29;19959;-69
2023/09/10 10:05:33;;;;;;;12.48;10.65;;;22.40;99.90;;;;;;4910065;29;20044;-67
2023/09/10 10:08:00;;;;;;;11.10;10.13;;;22.30;99.90;;;;;;4910742;29;20083;-73
2023/09/10 10:10:27;;;;;;;12.38;11.10;;;22.40;99.90;;;;;;4911915;29;20078;-71
2023/09/10 10:12:55;;;;;;;11.63;10.27;;;22.50;99.90;;;;;;4911601;29;20052;-67
2023/09/10 10:15:24;;;;;;;10.75;9.82;;;22.60;99.90;;;;;;4910751;29;20073;-77
2023/09/10 10:17:53;;;;;;;9.65;8.85;;;22.70;99.90;;;;;;4911598;29;20127;-67
2023/09/10 10:20:21;;;;;;;9.77;8.88;;;22.70;99.90;;;;;;4908283;29;20044;-66
2023/09/10 10:22:49;;;;;;;10.05;9.15;;;22.80;99.90;;;;;;4911228;29;20049;-72
2023/09/10 10:25:16;;;;;;;12.63;9.63;;;23.00;99.90;;;;;;4909942;29;20044;-68
2023/09/10 10:27:44;;;;;;;9.82;8.25;;;23.20;99.90;;;;;;4911858;29;20107;-71
2023/09/10 10:30:12;;;;;;;9.15;8.23;;;23.40;99.90;;;;;;4911342;29;20553;-71
2023/09/10 10:32:41;;;;;;;8.57;7.88;;;23.50;99.90;;;;;;4913643;29;20071;-69
2023/09/10 10:35:10;;;;;;;8.88;7.97;;;23.60;99.90;;;;;;4910879;29;20072;-67
2023/09/10 10:37:58;;;;;;;8.40;7.57;;;23.70;99.90;;;;;;4910270;29;20070;-69
2023/09/10 10:40:30;;;;;;;8.40;7.32;;;23.80;99.90;;;;;;4910324;29;20079;-66
2023/09/10 10:43:08;;;;;;;9.43;8.63;;;23.90;99.90;;;;;;4911184;29;20075;-67
2023/09/10 10:45:36;;;;;;;8.73;7.78;;;24.00;99.90;;;;;;4908418;29;20048;-70
2023/09/10 10:48:16;;;;;;;9.60;8.80;;;24.10;99.90;;;;;;4910593;29;20387;-70
2023/09/10 10:50:44;;;;;;;8.95;8.25;;;24.20;99.90;;;;;;4910790;29;20402;-68
2023/09/10 10:53:21;;;;;;;9.93;7.28;;;24.30;99.90;;;;;;4905623;29;20052;-69
2023/09/10 10:55:53;;;;;;;7.57;6.72;;;24.40;99.90;;;;;;4905476;29;20044;-70
2023/09/10 10:58:24;;;;;;;9.02;8.07;;;24.50;99.90;;;;;;4911373;29;20059;-67
2023/09/10 11:00:53;;;;;;;8.20;7.40;;;24.50;99.90;;;;;;4909351;29;20056;-68
2023/09/10 11:03:21;;;;;;;10.30;8.45;;;24.40;99.90;;;;;;4910562;29;20557;-68
2023/09/10 11:06:12;;;;;;;8.07;7.22;;;24.40;99.90;;;;;;4909755;29;20045;-75
2023/09/10 11:08:40;;;;;;;8.00;7.22;;;24.60;99.90;;;;;;4909425;29;20103;-66
2023/09/10 11:11:30;;;;;;;8.65;7.05;;;24.60;99.90;;;;;;4907743;29;20048;-71
2023/09/10 11:14:02;;;;;;;9.35;8.45;;;24.70;99.90;;;;;;4910798;29;20221;-67
2023/09/10 11:16:34;;;;;;;9.75;8.73;;;24.60;99.90;;;;;;4908440;29;20479;-70
2023/09/10 11:19:03;;;;;;;9.98;8.50;;;24.70;99.90;;;;;;4912293;29;20051;-70
2023/09/10 11:21:54;;;;;;;7.82;7.10;;;24.60;99.90;;;;;;4909974;29;20048;-69
2023/09/10 11:24:21;;;;;;;9.30;8.10;;;24.60;99.90;;;;;;4909886;29;20059;-69
2023/09/10 11:26:48;;;;;;;11.07;9.98;;;24.60;99.90;;;;;;4911330;29;20048;-67
2023/09/10 11:29:17;;;;;;;8.25;7.45;;;24.60;99.90;;;;;;4907719;29;20139;-68
2023/09/10 11:31:51;;;;;;;8.82;7.82;;;24.70;99.90;;;;;;4911517;29;20135;-68
2023/09/10 11:34:23;;;;;;;10.43;8.57;;;24.80;99.90;;;;;;4906010;29;20417;-71
2023/09/10 11:36:54;;;;;;;9.82;8.95;;;24.80;99.90;;;;;;4909686;29;20072;-67
2023/09/10 11:39:22;;;;;;;8.80;8.07;;;24.90;99.90;;;;;;4908119;29;20579;-67
2023/09/10 11:41:55;;;;;;;9.25;8.40;;;25.00;99.90;;;;;;4911553;29;20445;-70
2023/09/10 11:44:22;;;;;;;7.57;6.97;;;25.10;99.90;;;;;;4909840;29;20146;-67
2023/09/10 11:46:51;;;;;;;9.90;8.38;;;25.30;99.90;;;;;;4911111;29;20142;-70
2023/09/10 11:49:23;;;;;;;8.23;7.43;;;25.30;99.90;;;;;;4909090;29;20048;-68
2023/09/10 11:51:52;;;;;;;8.27;7.38;;;25.30;99.90;;;;;;4907755;29;20143;-67
2023/09/10 11:54:20;;;;;;;8.02;7.32;;;25.40;99.90;;;;;;4907454;29;20487;-74
2023/09/10 11:56:50;;;;;;;7.00;6.32;;;25.40;99.90;;;;;;4908455;29;20506;-68
2023/09/10 11:59:19;;;;;;;8.50;7.68;;;25.60;99.90;;;;;;4909936;29;20076;-68
2023/09/10 12:01:46;;;;;;;10.00;7.43;;;25.40;99.90;;;;;;4909931;29;20427;-66
2023/09/10 12:04:16;;;;;;;10.23;6.43;;;25.40;99.90;;;;;;4909093;29;20595;-69
2023/09/10 12:06:44;;;;;;;;;;;25.50;99.90;;;;;;4908541;29;20474;-66
2023/09/10 12:09:13;;;;;;;8.23;6.05;;;25.60;99.90;;;;;;4906208;29;19926;-67
2023/09/10 12:11:41;;;;;;;5.90;5.30;;;25.70;99.90;;;;;;4909921;29;20040;-68
2023/09/10 12:14:08;;;;;;;7.55;6.85;;;25.90;99.90;;;;;;4908330;29;20390;-72
2023/09/10 12:16:35;;;;;;;7.35;6.65;;;26.00;99.90;;;;;;4905483;29;20498;-68
2023/09/10 12:19:02;;;;;;;6.32;5.30;;;26.10;99.90;;;;;;4892752;29;20664;-67
2023/09/10 12:21:30;;;;;;;5.95;5.45;;;26.20;99.90;;;;;;4909137;29;20099;-75
2023/09/10 12:23:57;;;;;;;6.18;5.53;;;26.40;99.90;;;;;;4909294;29;20073;-69
2023/09/10 12:26:24;;;;;;;9.68;5.68;;;26.60;99.90;;;;;;4909444;29;20139;-71
2023/09/10 12:28:51;;;;;;;5.90;5.40;;;26.70;99.90;;;;;;4908902;29;20047;-74
2023/09/10 12:31:19;;;;;;;7.07;6.47;;;26.90;99.90;;;;;;4910362;29;20138;-70
2023/09/10 12:33:46;;;;;;;6.47;5.88;;;27.10;99.90;;;;;;4907279;29;20119;-67
2023/09/10 12:36:14;;;;;;;29.63;7.40;;;27.20;99.90;;;;;;4905793;29;20509;-75
2023/09/10 12:38:41;;;;;;;6.28;5.70;;;27.30;99.90;;;;;;4910152;29;20132;-71
2023/09/10 12:41:09;;;;;;;6.60;5.97;;;27.40;99.90;;;;;;4909312;29;20051;-69